sensor_id;sensor_type;location;lat;lon;timestamp;pressure;altitude;pressure_sealevel;temperature;humidity
9009;BME280;62813;51.424;6.762;2023-07-20T00:00:03;101061.16;;;19.56;62.14
9009;BME280;62813;51.424;6.762;2023-07-20T00:02:30;101059.72;;;19.58;61.74
9009;BME280;62813;51.424;6.762;2023-07-20T00:04:57;101050.91;;;19.49;62.32
9009;BME280;62813;51.424;6.762;2023-07-20T00:07:24;101057.50;;;19.52;62.04
9009;BME280;62813;51.424;6.762;2023-07-20T00:09:51;101059.88;;;19.53;62.34
9009;BME280;62813;51.424;6.762;2023-07-20T00:12:18;101056.69;;;19.43;62.32
9009;BME280;62813;51.424;6.762;2023-07-20T00:14:44;101052.16;;;19.52;62.07
9009;BME280;62813;51.424;6.762;2023-07-20T00:17:11;101044.59;;;19.45;62.04
9009;BME280;62813;51.424;6.762;2023-07-20T00:19:38;101050.91;;;19.49;62.25
9009;BME280;62813;51.424;6.762;2023-07-20T00:22:05;101054.78;;;19.43;62.52
9009;BME280;62813;51.424;6.762;2023-07-20T00:24:31;101052.75;;;19.40;62.56
9009;BME280;62813;51.424;6.762;2023-07-20T00:26:59;101042.09;;;19.49;62.42
9009;BME280;62813;51.424;6.762;2023-07-20T00:29:27;101054.16;;;19.38;62.46
9009;BME280;62813;51.424;6.762;2023-07-20T00:31:54;101042.53;;;19.42;62.07
9009;BME280;62813;51.424;6.762;2023-07-20T00:34:21;101040.03;;;19.37;62.38
9009;BME280;62813;51.424;6.762;2023-07-20T00:36:47;101033.91;;;19.45;62.24
9009;BME280;62813;51.424;6.762;2023-07-20T00:39:16;101034.03;;;19.40;62.10
9009;BME280;62813;51.424;6.762;2023-07-20T00:41:42;101037.97;;;19.43;62.22
9009;BME280;62813;51.424;6.762;2023-07-20T00:44:09;101036.69;;;19.40;62.33
9009;BME280;62813;51.424;6.762;2023-07-20T00:46:35;101039.72;;;19.39;62.54
9009;BME280;62813;51.424;6.762;2023-07-20T00:49:02;101042.22;;;19.35;62.75
9009;BME280;62813;51.424;6.762;2023-07-20T00:51:29;101047.53;;;19.26;63.45
9009;BME280;62813;51.424;6.762;2023-07-20T00:53:56;101046.56;;;19.22;62.99
9009;BME280;62813;51.424;6.762;2023-07-20T00:56:23;101045.34;;;19.28;62.86
9009;BME280;62813;51.424;6.762;2023-07-20T00:58:53;101053.50;;;19.23;63.37
9009;BME280;62813;51.424;6.762;2023-07-20T01:01:19;101047.72;;;19.30;62.49
9009;BME280;62813;51.424;6.762;2023-07-20T01:03:46;101049.25;;;19.22;62.75
9009;BME280;62813;51.424;6.762;2023-07-20T01:06:29;101046.91;;;19.21;63.26
9009;BME280;62813;51.424;6.762;2023-07-20T01:09:07;101045.47;;;19.15;63.40
9009;BME280;62813;51.424;6.762;2023-07-20T01:11:38;101046.28;;;19.24;63.26
9009;BME280;62813;51.424;6.762;2023-07-20T01:14:11;101039.53;;;19.26;63.38
9009;BME280;62813;51.424;6.762;2023-07-20T01:16:38;101048.31;;;19.27;62.92
9009;BME280;62813;51.424;6.762;2023-07-20T01:19:05;101039.81;;;19.25;63.38
9009;BME280;62813;51.424;6.762;2023-07-20T01:21:40;101043.59;;;19.24;63.42
9009;BME280;62813;51.424;6.762;2023-07-20T01:27:32;101051.47;;;19.29;63.70
9009;BME280;62813;51.424;6.762;2023-07-20T01:32:49;101059.19;;;19.22;64.58
9009;BME280;62813;51.424;6.762;2023-07-20T01:35:19;101049.88;;;19.19;65.51
9009;BME280;62813;51.424;6.762;2023-07-20T01:37:47;101054.56;;;19.05;66.56
9009;BME280;62813;51.424;6.762;2023-07-20T01:40:14;101046.06;;;19.03;67.05
9009;BME280;62813;51.424;6.762;2023-07-20T01:42:46;101055.81;;;19.08;68.30
9009;BME280;62813;51.424;6.762;2023-07-20T01:45:13;101045.13;;;19.08;68.69
9009;BME280;62813;51.424;6.762;2023-07-20T01:47:40;101048.38;;;18.87;70.26
9009;BME280;62813;51.424;6.762;2023-07-20T01:50:07;101039.44;;;18.92;70.69
9009;BME280;62813;51.424;6.762;2023-07-20T01:52:34;101031.75;;;18.99;71.10
9009;BME280;62813;51.424;6.762;2023-07-20T01:55:01;101040.66;;;18.77;71.88
9009;BME280;62813;51.424;6.762;2023-07-20T01:57:27;101035.03;;;18.87;71.96
9009;BME280;62813;51.424;6.762;2023-07-20T01:59:54;101036.50;;;18.63;73.10
9009;BME280;62813;51.424;6.762;2023-07-20T02:02:25;101030.44;;;18.48;73.76
9009;BME280;62813;51.424;6.762;2023-07-20T02:04:52;101035.41;;;18.72;72.35
9009;BME280;62813;51.424;6.762;2023-07-20T02:07:19;101033.88;;;18.80;71.81
9009;BME280;62813;51.424;6.762;2023-07-20T02:09:45;101036.84;;;18.70;72.73
9009;BME280;62813;51.424;6.762;2023-07-20T02:12:12;101042.53;;;18.77;72.47
9009;BME280;62813;51.424;6.762;2023-07-20T02:14:39;101043.09;;;18.65;73.08
9009;BME280;62813;51.424;6.762;2023-07-20T02:17:05;101049.41;;;18.69;73.36
9009;BME280;62813;51.424;6.762;2023-07-20T02:19:32;101039.47;;;18.61;72.97
9009;BME280;62813;51.424;6.762;2023-07-20T02:21:59;101037.63;;;18.70;72.99
9009;BME280;62813;51.424;6.762;2023-07-20T02:24:25;101047.56;;;18.56;73.74
9009;BME280;62813;51.424;6.762;2023-07-20T02:26:52;101050.47;;;18.60;73.23
9009;BME280;62813;51.424;6.762;2023-07-20T02:29:19;101053.16;;;18.46;73.79
9009;BME280;62813;51.424;6.762;2023-07-20T02:31:46;101057.31;;;18.52;72.04
9009;BME280;62813;51.424;6.762;2023-07-20T02:34:13;101053.22;;;18.54;73.07
9009;BME280;62813;51.424;6.762;2023-07-20T02:36:40;101051.66;;;18.53;72.82
9009;BME280;62813;51.424;6.762;2023-07-20T02:39:09;101054.53;;;18.57;72.35
9009;BME280;62813;51.424;6.762;2023-07-20T02:41:37;101053.72;;;18.57;72.85
9009;BME280;62813;51.424;6.762;2023-07-20T02:44:03;101052.81;;;18.39;73.03
9009;BME280;62813;51.424;6.762;2023-07-20T02:46:30;101051.13;;;18.43;73.86
9009;BME280;62813;51.424;6.762;2023-07-20T02:48:57;101059.00;;;18.48;72.01
9009;BME280;62813;51.424;6.762;2023-07-20T02:51:23;101049.69;;;18.37;72.67
9009;BME280;62813;51.424;6.762;2023-07-20T02:53:50;101060.97;;;18.34;73.76
9009;BME280;62813;51.424;6.762;2023-07-20T02:56:17;101057.69;;;18.37;73.98
9009;BME280;62813;51.424;6.762;2023-07-20T02:58:44;101052.47;;;18.32;72.96
9009;BME280;62813;51.424;6.762;2023-07-20T03:01:12;101058.22;;;18.47;72.74
9009;BME280;62813;51.424;6.762;2023-07-20T03:03:39;101058.50;;;18.46;72.75
9009;BME280;62813;51.424;6.762;2023-07-20T03:06:06;101059.63;;;18.45;73.07
9009;BME280;62813;51.424;6.762;2023-07-20T03:08:35;101058.41;;;18.51;73.45
9009;BME280;62813;51.424;6.762;2023-07-20T03:11:02;101063.97;;;18.41;73.10
9009;BME280;62813;51.424;6.762;2023-07-20T03:13:29;101064.91;;;18.36;73.29
9009;BME280;62813;51.424;6.762;2023-07-20T03:15:56;101059.81;;;18.26;72.86
9009;BME280;62813;51.424;6.762;2023-07-20T03:18:22;101065.94;;;18.27;73.65
9009;BME280;62813;51.424;6.762;2023-07-20T03:20:49;101067.97;;;18.30;73.63
9009;BME280;62813;51.424;6.762;2023-07-20T03:23:16;101066.91;;;18.31;73.76
9009;BME280;62813;51.424;6.762;2023-07-20T03:25:43;101075.59;;;18.36;73.31
9009;BME280;62813;51.424;6.762;2023-07-20T03:28:10;101066.53;;;18.24;73.49
9009;BME280;62813;51.424;6.762;2023-07-20T03:30:36;101066.59;;;18.32;72.30
9009;BME280;62813;51.424;6.762;2023-07-20T03:33:03;101056.38;;;18.26;72.56
9009;BME280;62813;51.424;6.762;2023-07-20T03:35:30;101064.66;;;18.24;73.37
9009;BME280;62813;51.424;6.762;2023-07-20T03:37:57;101074.19;;;18.17;73.50
9009;BME280;62813;51.424;6.762;2023-07-20T03:40:24;101080.81;;;18.19;74.01
9009;BME280;62813;51.424;6.762;2023-07-20T03:42:51;101072.19;;;18.22;73.87
9009;BME280;62813;51.424;6.762;2023-07-20T03:45:18;101066.19;;;18.17;74.35
9009;BME280;62813;51.424;6.762;2023-07-20T03:47:44;101077.06;;;18.20;73.91
9009;BME280;62813;51.424;6.762;2023-07-20T03:50:11;101080.41;;;18.12;73.75
9009;BME280;62813;51.424;6.762;2023-07-20T03:52:38;101077.69;;;18.03;74.45
9009;BME280;62813;51.424;6.762;2023-07-20T03:55:05;101077.59;;;18.08;73.50
9009;BME280;62813;51.424;6.762;2023-07-20T03:57:32;101081.69;;;18.14;73.28
9009;BME280;62813;51.424;6.762;2023-07-20T03:59:59;101080.25;;;18.08;74.29
9009;BME280;62813;51.424;6.762;2023-07-20T04:02:26;101087.03;;;18.14;74.50
9009;BME280;62813;51.424;6.762;2023-07-20T04:04:53;101085.94;;;18.15;72.92
9009;BME280;62813;51.424;6.762;2023-07-20T04:07:19;101093.13;;;18.29;72.87
9009;BME280;62813;51.424;6.762;2023-07-20T04:09:46;101087.81;;;18.15;73.83
9009;BME280;62813;51.424;6.762;2023-07-20T04:12:13;101094.16;;;18.19;74.17
9009;BME280;62813;51.424;6.762;2023-07-20T04:14:39;101096.13;;;18.13;73.96
9009;BME280;62813;51.424;6.762;2023-07-20T04:17:06;101092.94;;;18.03;74.18
9009;BME280;62813;51.424;6.762;2023-07-20T04:19:33;101090.25;;;18.03;74.04
9009;BME280;62813;51.424;6.762;2023-07-20T04:21:59;101091.16;;;17.98;73.61
9009;BME280;62813;51.424;6.762;2023-07-20T04:24:26;101092.94;;;17.67;74.73
9009;BME280;62813;51.424;6.762;2023-07-20T04:26:53;101098.84;;;17.77;74.27
9009;BME280;62813;51.424;6.762;2023-07-20T04:29:19;101100.47;;;17.87;74.34
9009;BME280;62813;51.424;6.762;2023-07-20T04:31:46;101096.31;;;17.95;74.13
9009;BME280;62813;51.424;6.762;2023-07-20T04:34:13;101100.84;;;17.94;73.89
9009;BME280;62813;51.424;6.762;2023-07-20T04:36:39;101106.97;;;17.95;72.94
9009;BME280;62813;51.424;6.762;2023-07-20T04:39:06;101103.47;;;18.08;72.99
9009;BME280;62813;51.424;6.762;2023-07-20T04:41:51;101100.66;;;18.13;73.13
9009;BME280;62813;51.424;6.762;2023-07-20T04:44:17;101101.59;;;18.08;73.37
9009;BME280;62813;51.424;6.762;2023-07-20T04:46:44;101110.00;;;18.02;72.99
9009;BME280;62813;51.424;6.762;2023-07-20T04:49:12;101114.13;;;18.08;73.49
9009;BME280;62813;51.424;6.762;2023-07-20T04:51:39;101126.72;;;17.94;73.76
9009;BME280;62813;51.424;6.762;2023-07-20T04:54:06;101119.63;;;17.89;73.79
9009;BME280;62813;51.424;6.762;2023-07-20T04:56:33;101114.97;;;17.95;73.62
9009;BME280;62813;51.424;6.762;2023-07-20T04:59:00;101116.38;;;17.92;73.91
9009;BME280;62813;51.424;6.762;2023-07-20T05:01:26;101117.69;;;18.03;74.00
9009;BME280;62813;51.424;6.762;2023-07-20T05:03:53;101121.50;;;17.89;74.20
9009;BME280;62813;51.424;6.762;2023-07-20T05:06:20;101128.97;;;18.00;74.36
9009;BME280;62813;51.424;6.762;2023-07-20T05:08:47;101121.34;;;18.07;72.88
9009;BME280;62813;51.424;6.762;2023-07-20T05:11:14;101118.47;;;18.04;73.65
9009;BME280;62813;51.424;6.762;2023-07-20T05:13:41;101124.00;;;18.07;73.68
9009;BME280;62813;51.424;6.762;2023-07-20T05:16:07;101128.91;;;17.92;74.73
9009;BME280;62813;51.424;6.762;2023-07-20T05:18:34;101128.84;;;18.05;73.44
9009;BME280;62813;51.424;6.762;2023-07-20T05:21:01;101128.97;;;18.00;73.12
9009;BME280;62813;51.424;6.762;2023-07-20T05:23:28;101129.16;;;18.04;73.16
9009;BME280;62813;51.424;6.762;2023-07-20T05:25:58;101142.31;;;18.00;73.12
9009;BME280;62813;51.424;6.762;2023-07-20T05:28:26;101139.66;;;18.00;73.07
9009;BME280;62813;51.424;6.762;2023-07-20T05:30:53;101139.38;;;17.88;72.76
9009;BME280;62813;51.424;6.762;2023-07-20T05:33:23;101133.16;;;17.93;72.05
9009;BME280;62813;51.424;6.762;2023-07-20T05:35:50;101141.66;;;17.81;72.68
9009;BME280;62813;51.424;6.762;2023-07-20T05:38:16;101135.03;;;17.78;72.80
9009;BME280;62813;51.424;6.762;2023-07-20T05:40:44;101143.25;;;17.82;72.75
9009;BME280;62813;51.424;6.762;2023-07-20T05:43:11;101136.16;;;17.77;70.98
9009;BME280;62813;51.424;6.762;2023-07-20T05:45:41;101138.81;;;17.77;71.08
9009;BME280;62813;51.424;6.762;2023-07-20T05:48:08;101147.41;;;17.47;72.91
9009;BME280;62813;51.424;6.762;2023-07-20T05:50:41;101149.09;;;17.43;72.66
9009;BME280;62813;51.424;6.762;2023-07-20T05:53:08;101141.88;;;17.71;72.79
9009;BME280;62813;51.424;6.762;2023-07-20T05:55:35;101149.47;;;17.77;72.68
9009;BME280;62813;51.424;6.762;2023-07-20T05:58:02;101156.78;;;17.86;71.11
9009;BME280;62813;51.424;6.762;2023-07-20T06:00:30;101154.00;;;17.91;71.07
9009;BME280;62813;51.424;6.762;2023-07-20T06:02:57;101158.56;;;18.12;71.11
9009;BME280;62813;51.424;6.762;2023-07-20T06:05:24;101158.31;;;18.00;69.70
9009;BME280;62813;51.424;6.762;2023-07-20T06:07:54;101162.31;;;17.62;69.76
9009;BME280;62813;51.424;6.762;2023-07-20T06:10:21;101162.41;;;17.84;69.38
9009;BME280;62813;51.424;6.762;2023-07-20T06:12:48;101158.75;;;17.80;69.35
9009;BME280;62813;51.424;6.762;2023-07-20T06:15:26;101170.19;;;17.94;69.51
9009;BME280;62813;51.424;6.762;2023-07-20T06:17:54;101165.25;;;17.88;69.68
9009;BME280;62813;51.424;6.762;2023-07-20T06:20:22;101164.97;;;17.75;70.08
9009;BME280;62813;51.424;6.762;2023-07-20T06:22:49;101164.28;;;17.70;69.69
9009;BME280;62813;51.424;6.762;2023-07-20T06:25:15;101171.19;;;17.57;70.49
9009;BME280;62813;51.424;6.762;2023-07-20T06:27:42;101175.41;;;17.45;70.89
9009;BME280;62813;51.424;6.762;2023-07-20T06:30:10;101172.09;;;17.66;69.88
9009;BME280;62813;51.424;6.762;2023-07-20T06:32:39;101170.56;;;17.88;69.42
9009;BME280;62813;51.424;6.762;2023-07-20T06:35:06;101188.16;;;17.61;70.39
9009;BME280;62813;51.424;6.762;2023-07-20T06:37:33;101172.47;;;17.60;69.89
9009;BME280;62813;51.424;6.762;2023-07-20T06:40:00;101173.84;;;17.71;69.15
9009;BME280;62813;51.424;6.762;2023-07-20T06:42:29;101174.94;;;17.70;69.53
9009;BME280;62813;51.424;6.762;2023-07-20T06:45:00;101172.19;;;17.75;69.33
9009;BME280;62813;51.424;6.762;2023-07-20T06:47:27;101174.81;;;18.02;68.81
9009;BME280;62813;51.424;6.762;2023-07-20T06:49:54;101173.94;;;17.93;67.72
9009;BME280;62813;51.424;6.762;2023-07-20T06:52:20;101173.59;;;18.08;66.80
9009;BME280;62813;51.424;6.762;2023-07-20T06:54:47;101176.00;;;17.96;66.77
9009;BME280;62813;51.424;6.762;2023-07-20T06:57:13;101173.66;;;17.81;67.18
9009;BME280;62813;51.424;6.762;2023-07-20T06:59:44;101176.59;;;17.80;68.11
9009;BME280;62813;51.424;6.762;2023-07-20T07:02:12;101176.06;;;17.69;67.66
9009;BME280;62813;51.424;6.762;2023-07-20T07:04:40;101179.56;;;17.92;67.65
9009;BME280;62813;51.424;6.762;2023-07-20T07:07:07;101182.59;;;17.99;67.77
9009;BME280;62813;51.424;6.762;2023-07-20T07:09:34;101185.84;;;18.09;67.31
9009;BME280;62813;51.424;6.762;2023-07-20T07:12:01;101187.44;;;17.97;67.86
9009;BME280;62813;51.424;6.762;2023-07-20T07:14:28;101191.81;;;17.93;68.11
9009;BME280;62813;51.424;6.762;2023-07-20T07:16:55;101181.22;;;18.01;67.82
9009;BME280;62813;51.424;6.762;2023-07-20T07:19:24;101189.09;;;18.20;69.67
9009;BME280;62813;51.424;6.762;2023-07-20T07:21:50;101191.03;;;18.28;67.00
9009;BME280;62813;51.424;6.762;2023-07-20T07:24:17;101189.63;;;18.31;66.86
9009;BME280;62813;51.424;6.762;2023-07-20T07:26:45;101196.78;;;18.22;66.19
9009;BME280;62813;51.424;6.762;2023-07-20T07:29:12;101200.28;;;18.08;65.66
9009;BME280;62813;51.424;6.762;2023-07-20T07:31:39;101195.13;;;18.12;65.72
9009;BME280;62813;51.424;6.762;2023-07-20T07:34:06;101201.41;;;17.94;66.55
9009;BME280;62813;51.424;6.762;2023-07-20T07:36:32;101202.66;;;17.96;65.84
9009;BME280;62813;51.424;6.762;2023-07-20T07:38:59;101205.28;;;18.24;66.37
9009;BME280;62813;51.424;6.762;2023-07-20T07:41:29;101214.84;;;18.25;65.60
9009;BME280;62813;51.424;6.762;2023-07-20T07:43:56;101210.22;;;18.17;65.25
9009;BME280;62813;51.424;6.762;2023-07-20T07:46:23;101215.72;;;18.34;65.31
9009;BME280;62813;51.424;6.762;2023-07-20T07:48:50;101212.91;;;18.52;65.41
9009;BME280;62813;51.424;6.762;2023-07-20T07:51:16;101214.56;;;18.48;65.26
9009;BME280;62813;51.424;6.762;2023-07-20T07:53:43;101215.88;;;18.51;63.30
9009;BME280;62813;51.424;6.762;2023-07-20T07:56:10;101222.59;;;18.62;64.59
9009;BME280;62813;51.424;6.762;2023-07-20T07:58:37;101221.59;;;18.80;62.56
9009;BME280;62813;51.424;6.762;2023-07-20T08:01:04;101220.59;;;18.99;62.38
9009;BME280;62813;51.424;6.762;2023-07-20T08:03:33;101218.22;;;19.19;61.84
9009;BME280;62813;51.424;6.762;2023-07-20T08:06:02;101228.25;;;19.14;61.30
9009;BME280;62813;51.424;6.762;2023-07-20T08:08:33;101232.03;;;18.90;61.09
9009;BME280;62813;51.424;6.762;2023-07-20T08:11:00;101231.38;;;18.85;61.21
9009;BME280;62813;51.424;6.762;2023-07-20T08:13:33;101234.09;;;18.94;61.78
9009;BME280;62813;51.424;6.762;2023-07-20T08:16:00;101233.69;;;18.78;62.57
9009;BME280;62813;51.424;6.762;2023-07-20T08:18:28;101228.50;;;18.81;61.71
9009;BME280;62813;51.424;6.762;2023-07-20T08:20:56;101227.78;;;18.89;60.62
9009;BME280;62813;51.424;6.762;2023-07-20T08:23:22;101227.78;;;19.12;58.93
9009;BME280;62813;51.424;6.762;2023-07-20T08:25:49;101233.69;;;18.78;60.99
9009;BME280;62813;51.424;6.762;2023-07-20T08:28:16;101233.22;;;19.07;61.32
9009;BME280;62813;51.424;6.762;2023-07-20T08:30:45;101236.47;;;19.26;60.86
9009;BME280;62813;51.424;6.762;2023-07-20T08:33:16;101242.28;;;19.19;58.46
9009;BME280;62813;51.424;6.762;2023-07-20T08:35:46;101229.63;;;19.42;58.89
9009;BME280;62813;51.424;6.762;2023-07-20T08:38:13;101238.75;;;19.41;59.24
9009;BME280;62813;51.424;6.762;2023-07-20T08:40:41;101240.97;;;19.39;60.06
9009;BME280;62813;51.424;6.762;2023-07-20T08:43:10;101244.88;;;19.42;59.40
9009;BME280;62813;51.424;6.762;2023-07-20T08:45:41;101245.03;;;19.37;59.39
9009;BME280;62813;51.424;6.762;2023-07-20T08:48:08;101237.31;;;19.35;58.42
9009;BME280;62813;51.424;6.762;2023-07-20T08:50:35;101244.50;;;19.26;56.74
9009;BME280;62813;51.424;6.762;2023-07-20T08:53:02;101238.81;;;19.19;56.81
9009;BME280;62813;51.424;6.762;2023-07-20T08:55:30;101244.97;;;19.28;56.90
9009;BME280;62813;51.424;6.762;2023-07-20T08:58:00;101242.47;;;19.54;57.01
9009;BME280;62813;51.424;6.762;2023-07-20T09:00:27;101244.34;;;19.53;54.53
9009;BME280;62813;51.424;6.762;2023-07-20T09:02:56;101242.38;;;19.76;53.71
9009;BME280;62813;51.424;6.762;2023-07-20T09:05:24;101247.94;;;19.97;53.54
9009;BME280;62813;51.424;6.762;2023-07-20T09:07:53;101237.38;;;20.00;53.62
9009;BME280;62813;51.424;6.762;2023-07-20T09:10:24;101246.97;;;19.93;52.07
9009;BME280;62813;51.424;6.762;2023-07-20T09:12:51;101241.56;;;19.76;51.57
9009;BME280;62813;51.424;6.762;2023-07-20T09:15:19;101231.97;;;19.75;52.96
9009;BME280;62813;51.424;6.762;2023-07-20T09:17:47;101232.72;;;19.58;52.72
9009;BME280;62813;51.424;6.762;2023-07-20T09:20:18;101226.66;;;19.92;53.51
9009;BME280;62813;51.424;6.762;2023-07-20T09:22:50;101243.50;;;19.84;52.79
9009;BME280;62813;51.424;6.762;2023-07-20T09:25:19;101237.09;;;20.02;52.15
9009;BME280;62813;51.424;6.762;2023-07-20T09:27:49;101233.63;;;20.01;51.40
9009;BME280;62813;51.424;6.762;2023-07-20T09:30:18;101231.09;;;19.96;51.20
9009;BME280;62813;51.424;6.762;2023-07-20T09:32:46;101222.13;;;20.01;48.52
9009;BME280;62813;51.424;6.762;2023-07-20T09:35:18;101228.75;;;20.12;49.17
9009;BME280;62813;51.424;6.762;2023-07-20T09:37:59;101235.41;;;20.23;48.83
9009;BME280;62813;51.424;6.762;2023-07-20T09:40:29;101237.44;;;20.26;49.59
9009;BME280;62813;51.424;6.762;2023-07-20T09:42:59;101224.34;;;20.25;49.08
9009;BME280;62813;51.424;6.762;2023-07-20T09:45:33;101226.09;;;20.29;50.54
9009;BME280;62813;51.424;6.762;2023-07-20T09:48:06;101232.59;;;20.37;50.12
9009;BME280;62813;51.424;6.762;2023-07-20T09:50:43;101219.03;;;20.42;50.34
9009;BME280;62813;51.424;6.762;2023-07-20T09:53:16;101217.94;;;20.43;51.01
9009;BME280;62813;51.424;6.762;2023-07-20T09:55:45;101221.84;;;20.11;50.49
9009;BME280;62813;51.424;6.762;2023-07-20T09:58:13;101225.09;;;19.99;50.15
9009;BME280;62813;51.424;6.762;2023-07-20T10:00:41;101219.75;;;19.91;50.98
9009;BME280;62813;51.424;6.762;2023-07-20T10:03:28;101218.00;;;19.78;49.76
9009;BME280;62813;51.424;6.762;2023-07-20T10:06:05;101214.84;;;19.76;49.17
9009;BME280;62813;51.424;6.762;2023-07-20T10:08:38;101220.09;;;19.98;49.17
9009;BME280;62813;51.424;6.762;2023-07-20T10:11:10;101223.22;;;20.09;48.43
9009;BME280;62813;51.424;6.762;2023-07-20T10:13:40;101213.03;;;20.19;48.24
9009;BME280;62813;51.424;6.762;2023-07-20T10:16:15;101225.47;;;20.15;49.73
9009;BME280;62813;51.424;6.762;2023-07-20T10:18:53;101218.25;;;20.33;48.87
9009;BME280;62813;51.424;6.762;2023-07-20T10:21:21;101217.94;;;20.43;48.26
9009;BME280;62813;51.424;6.762;2023-07-20T10:23:57;101218.91;;;20.47;48.04
9009;BME280;62813;51.424;6.762;2023-07-20T10:26:25;101212.88;;;20.50;49.25
9009;BME280;62813;51.424;6.762;2023-07-20T10:28:52;101213.50;;;20.73;48.45
9009;BME280;62813;51.424;6.762;2023-07-20T10:31:20;101209.88;;;20.69;47.37
9009;BME280;62813;51.424;6.762;2023-07-20T10:33:48;101220.16;;;20.50;47.85
9009;BME280;62813;51.424;6.762;2023-07-20T10:36:24;101217.78;;;20.65;48.02
9009;BME280;62813;51.424;6.762;2023-07-20T10:38:57;101214.13;;;20.70;47.26
9009;BME280;62813;51.424;6.762;2023-07-20T10:41:28;101206.56;;;20.81;47.73
9009;BME280;62813;51.424;6.762;2023-07-20T10:44:08;101202.91;;;20.94;47.49
9009;BME280;62813;51.424;6.762;2023-07-20T10:46:41;101203.66;;;21.03;47.28
9009;BME280;62813;51.424;6.762;2023-07-20T10:49:10;101194.03;;;21.19;46.92
9009;BME280;62813;51.424;6.762;2023-07-20T10:51:43;101203.09;;;21.35;46.68
9009;BME280;62813;51.424;6.762;2023-07-20T10:56:46;101198.16;;;21.08;45.20
9009;BME280;62813;51.424;6.762;2023-07-20T10:59:36;101189.03;;;21.00;46.41
9009;BME280;62813;51.424;6.762;2023-07-20T11:02:08;101185.13;;;20.89;46.22
9009;BME280;62813;51.424;6.762;2023-07-20T11:04:46;101184.63;;;20.96;46.07
9009;BME280;62813;51.424;6.762;2023-07-20T11:07:16;101182.44;;;20.89;46.55
9009;BME280;62813;51.424;6.762;2023-07-20T11:09:43;101183.75;;;20.66;45.72
9009;BME280;62813;51.424;6.762;2023-07-20T11:12:16;101182.47;;;20.81;45.51
9009;BME280;62813;51.424;6.762;2023-07-20T11:14:54;101177.56;;;20.83;45.51
9009;BME280;62813;51.424;6.762;2023-07-20T11:17:29;101176.75;;;20.91;45.41
9009;BME280;62813;51.424;6.762;2023-07-20T11:19:57;101181.75;;;21.09;45.41
9009;BME280;62813;51.424;6.762;2023-07-20T11:22:27;101170.53;;;21.25;45.64
9009;BME280;62813;51.424;6.762;2023-07-20T11:24:59;101170.50;;;21.33;45.03
9009;BME280;62813;51.424;6.762;2023-07-20T11:27:26;101166.03;;;21.37;44.49
9009;BME280;62813;51.424;6.762;2023-07-20T11:29:55;101162.16;;;21.26;44.61
9009;BME280;62813;51.424;6.762;2023-07-20T11:32:24;101165.16;;;21.25;44.17
9009;BME280;62813;51.424;6.762;2023-07-20T11:34:51;101168.59;;;21.34;44.32
9009;BME280;62813;51.424;6.762;2023-07-20T11:37:18;101169.91;;;21.19;44.36
9009;BME280;62813;51.424;6.762;2023-07-20T11:39:45;101163.72;;;21.27;43.61
9009;BME280;62813;51.424;6.762;2023-07-20T11:42:13;101168.16;;;21.23;44.15
9009;BME280;62813;51.424;6.762;2023-07-20T11:45:02;101160.44;;;21.13;43.64
9009;BME280;62813;51.424;6.762;2023-07-20T11:47:32;101162.50;;;21.16;43.77
9009;BME280;62813;51.424;6.762;2023-07-20T11:50:03;101159.25;;;21.40;43.13
9009;BME280;62813;51.424;6.762;2023-07-20T11:52:30;101153.28;;;21.64;44.18
9009;BME280;62813;51.424;6.762;2023-07-20T11:54:57;101159.28;;;21.61;43.16
9009;BME280;62813;51.424;6.762;2023-07-20T11:57:24;101154.00;;;21.52;42.57
9009;BME280;62813;51.424;6.762;2023-07-20T11:59:58;101150.22;;;21.44;42.97
9009;BME280;62813;51.424;6.762;2023-07-20T12:02:30;101147.00;;;21.30;43.30
9009;BME280;62813;51.424;6.762;2023-07-20T12:04:57;101141.03;;;21.25;42.81
9009;BME280;62813;51.424;6.762;2023-07-20T12:07:26;101135.69;;;21.16;43.54
9009;BME280;62813;51.424;6.762;2023-07-20T12:10:24;101146.09;;;21.26;43.29
9009;BME280;62813;51.424;6.762;2023-07-20T12:12:50;101151.56;;;21.30;43.79
9009;BME280;62813;51.424;6.762;2023-07-20T12:15:23;101142.41;;;21.31;43.83
9009;BME280;62813;51.424;6.762;2023-07-20T12:17:55;101148.75;;;21.26;42.77
9009;BME280;62813;51.424;6.762;2023-07-20T12:20:35;101148.63;;;21.14;43.15
9009;BME280;62813;51.424;6.762;2023-07-20T12:23:11;101148.03;;;21.08;42.82
9009;BME280;62813;51.424;6.762;2023-07-20T12:25:42;101149.25;;;21.20;42.92
9009;BME280;62813;51.424;6.762;2023-07-20T12:28:13;101145.41;;;21.29;43.63
9009;BME280;62813;51.424;6.762;2023-07-20T12:30:42;101150.25;;;21.36;43.55
9009;BME280;62813;51.424;6.762;2023-07-20T12:33:09;101140.09;;;21.21;44.41
9009;BME280;62813;51.424;6.762;2023-07-20T12:35:35;101149.06;;;21.25;44.06
9009;BME280;62813;51.424;6.762;2023-07-20T12:38:02;101148.25;;;21.33;44.26
9009;BME280;62813;51.424;6.762;2023-07-20T12:40:29;101142.94;;;21.24;42.90
9009;BME280;62813;51.424;6.762;2023-07-20T12:42:57;101137.72;;;21.19;43.34
9009;BME280;62813;51.424;6.762;2023-07-20T12:45:24;101145.00;;;21.19;43.36
9009;BME280;62813;51.424;6.762;2023-07-20T12:47:51;101137.34;;;21.38;43.07
9009;BME280;62813;51.424;6.762;2023-07-20T12:50:17;101130.19;;;21.50;43.37
9009;BME280;62813;51.424;6.762;2023-07-20T12:52:44;101132.44;;;21.61;42.72
9009;BME280;62813;51.424;6.762;2023-07-20T12:55:11;101136.09;;;21.85;42.05
9009;BME280;62813;51.424;6.762;2023-07-20T12:57:38;101133.41;;;21.85;43.21
9009;BME280;62813;51.424;6.762;2023-07-20T13:00:06;101132.63;;;21.85;42.32
9009;BME280;62813;51.424;6.762;2023-07-20T13:02:35;101126.00;;;22.03;42.60
9009;BME280;62813;51.424;6.762;2023-07-20T13:05:02;101125.81;;;21.87;42.31
9009;BME280;62813;51.424;6.762;2023-07-20T13:07:32;101126.47;;;22.05;42.10
9009;BME280;62813;51.424;6.762;2023-07-20T13:10:03;101126.47;;;22.05;41.88
9009;BME280;62813;51.424;6.762;2023-07-20T13:12:31;101120.56;;;22.12;40.25
9009;BME280;62813;51.424;6.762;2023-07-20T13:14:59;101115.84;;;22.30;39.90